EBLGLFST

Guest
Details From EBLG - Liege
To LFST - Entzheim
Flight Number -
Tags Generated
Created
Modified
Stats Distance 152 nm / 282 km
Max Altitude 0 ft / 0 m
Waypoints 2
Social Downloads 0
Likes 0
Share VATSIM

Download

Looking for another format? Having issues loading an existing format? Contact us
Advertisement - Login to hide

Notes

Generated

Route

EBLG LFST

ID Type Via Altitude Latitude Longitude Leg Dist Tot Dist Heading (true) Name
O EBLG APT - 0 ft / 0 m 50.63128˚ 5.43014˚ - 0 nm - -
O LFST APT - 0 ft / 0 m 48.53118˚ 7.61607˚ 152 nm 152 nm 145° / 147° -

Altitude Profile

Advertisement - Login to hide

EBLG

Details ICAO EBLG (LGG)
Name Liege
Region Belgium
Timezone Europe/Brussels (UTC+1.0)
Stats Elevation 645 ft / 197 m (AMSL)
Location 50.638120° 5.443140°
Runways 2
Magnetic Variation 1.428° E

METAR

EBLG 150820Z 20007KT 9999 -RA SCT010 BKN016 03/01 Q0993 TEMPO 2000 SHRASN BKN005

Decode

TAF

TAF EBLG 150502Z 1506/1612 24007KT 7000 SCT008 BKN016 PROB40 TEMPO 1506/1509 2500 SHSNRA BKN006 SCT012CB PROB40 TEMPO 1513/1518 2500 SHSNRA BKN006 SCT012CB PROB30 TEMPO 1523/1604 2500 BR BKN003

Decode

Departure Runways

ID Width Length Bearing (true) Bearing (mag) Surface Threshold Offset Overrun Length
05L 148 ft / 45 m 7,664 ft / 2,336 m 44.99° 43.56° Asphalt 151 ft / 46 m 0 ft / 0 m
05R 148 ft / 45 m 10,792 ft / 3,290 m 44.99° 43.56° Asphalt 151 ft / 46 m 0 ft / 0 m
23L 148 ft / 45 m 10,792 ft / 3,290 m 225.01° 223.58° Asphalt 151 ft / 46 m 0 ft / 0 m
23R 148 ft / 45 m 7,664 ft / 2,336 m 225.01° 223.58° Asphalt 151 ft / 46 m 0 ft / 0 m

LFST

Details ICAO LFST (SXB)
Name Entzheim
Region France
Timezone Europe/Paris (UTC+1.0)
Stats Elevation 504 ft / 154 m (AMSL)
Location 48.538335° 7.628265°
Runways 1
Magnetic Variation 2.104° E

METAR

LFST 150830Z AUTO 19014KT 9999 -RADZ FEW017 BKN033 BKN039 04/02 Q0998 TEMPO SCT030TCU

Decode

TAF

TAF LFST 150500Z 1506/1606 20010KT 9999 FEW030 BKN045 PROB40 TEMPO 1506/1512 -SHRA SCT030TCU TEMPO 1512/1514 FEW030TCU PROB40 TEMPO 1602/1606 3000 -RADZ BKN013

Decode

Destination Runways

ID Width Length Bearing (true) Bearing (mag) Surface Threshold Offset Overrun Length
05 148 ft / 45 m 7,899 ft / 2,408 m 48.60° 46.50° Asphalt 0 ft / 0 m 860 ft / 262 m
23 148 ft / 45 m 7,899 ft / 2,408 m 228.62° 226.52° Asphalt 0 ft / 0 m 902 ft / 275 m

Approach Navaids

Runway Type Ident Frequency Range Bearing (true) Bearing (mag) Slope Elevation
05 Localiser ENT 108.55 MHz 18 nm / 33 km 48.63° 46.53° - 499 ft / 152 m (AMSL)
05 Glidescope ENT 108.55 MHz 10 nm / 19 km 48.61° 46.51° 3.50° 561 ft / 171 m (AMSL)
05 DME ENT 108.55 MHz 18 nm / 33 km - - - 504 ft / 154 m (AMSL)
23 Localiser STZ 109.55 MHz 18 nm / 33 km 228.59° 226.49° - 515 ft / 157 m (AMSL)
23 Glidescope STZ 109.55 MHz 10 nm / 19 km 228.61° 226.51° 3.00° 542 ft / 165 m (AMSL)
23 DME STZ 109.55 MHz 18 nm / 33 km - - - 504 ft / 154 m (AMSL)

Popular Alternatives